createdAt,value
2019-04-16T00:00:26.431Z,9.87
2019-04-16T00:02:55.579Z,9.97
2019-04-16T00:05:48.447Z,9.67
2019-04-16T00:08:27.869Z,9.57
2019-04-16T00:10:59.154Z,9.90
2019-04-16T00:13:45.923Z,9.07
2019-04-16T00:16:13.765Z,9.40
2019-04-16T00:18:41.156Z,9.87
2019-04-16T00:21:34.006Z,9.47
2019-04-16T00:24:20.784Z,9.53
2019-04-16T00:26:57.839Z,8.47
2019-04-16T00:29:23.339Z,10.10
2019-04-16T00:31:56.037Z,9.70
2019-04-16T00:34:23.602Z,8.90
2019-04-16T00:36:50.668Z,10.00
2019-04-16T00:39:17.876Z,9.30
2019-04-16T00:41:44.964Z,10.40
2019-04-16T00:44:12.133Z,10.17
2019-04-16T00:46:39.322Z,9.80
2019-04-16T00:49:06.503Z,8.97
2019-04-16T00:51:33.770Z,10.07
2019-04-16T00:54:00.943Z,9.30
2019-04-16T00:56:28.156Z,9.90
2019-04-16T00:58:55.588Z,9.90
2019-04-16T01:01:22.766Z,9.57
2019-04-16T01:03:50.086Z,11.03
2019-04-16T01:06:17.286Z,9.60
2019-04-16T01:08:54.337Z,8.87
2019-04-16T01:11:13.618Z,8.57
2019-04-16T01:13:41.154Z,10.13
2019-04-16T01:16:08.327Z,9.17
2019-04-16T01:18:38.493Z,10.23
2019-04-16T01:21:04.677Z,10.17
2019-04-16T01:23:31.755Z,10.43
2019-04-16T01:25:59.052Z,9.73
2019-04-16T01:28:29.407Z,10.27
2019-04-16T01:31:08.278Z,9.37
2019-04-16T01:33:58.332Z,10.50
2019-04-16T01:36:34.963Z,10.10
2019-04-16T01:39:16.087Z,10.50
2019-04-16T01:41:34.263Z,8.97
2019-04-16T01:44:01.459Z,9.20
2019-04-16T01:46:32.543Z,8.60
2019-04-16T01:48:58.315Z,9.17
2019-04-16T01:51:25.708Z,8.40
2019-04-16T01:53:53.033Z,8.80
2019-04-16T01:56:20.199Z,8.97
2019-04-16T01:58:47.647Z,8.73
2019-04-16T02:01:15.107Z,9.83
2019-04-16T02:03:42.273Z,9.17
2019-04-16T02:06:09.855Z,10.17
2019-04-16T02:08:37.046Z,8.70
2019-04-16T02:11:04.213Z,8.80
2019-04-16T02:13:31.845Z,10.00
2019-04-16T02:15:59.609Z,7.63
2019-04-16T02:18:29.445Z,9.30
2019-04-16T02:20:55.821Z,10.17
2019-04-16T02:23:23.023Z,9.27
2019-04-16T02:25:51.374Z,8.93
2019-04-16T02:28:21.601Z,8.37
2019-04-16T02:30:48.323Z,9.23
2019-04-16T02:33:15.379Z,9.33
2019-04-16T02:35:42.471Z,8.53
2019-04-16T02:38:12.283Z,8.83
2019-04-16T02:40:38.846Z,8.80
2019-04-16T02:43:07.632Z,9.00
2019-04-16T02:45:35.188Z,9.20
2019-04-16T02:48:02.293Z,8.90
2019-04-16T02:50:38.126Z,8.30
2019-04-16T02:53:36.894Z,8.47
2019-04-16T02:56:38.546Z,9.77
2019-04-16T02:59:15.319Z,8.00
2019-04-16T03:01:52.999Z,9.47
2019-04-16T03:04:26.739Z,8.37
2019-04-16T03:06:52.602Z,8.20
2019-04-16T03:09:19.793Z,8.30
2019-04-16T03:11:49.034Z,8.53
2019-04-16T03:14:16.624Z,9.70
2019-04-16T03:17:03.195Z,8.60
2019-04-16T03:19:38.746Z,8.07
2019-04-16T03:22:05.081Z,7.77
2019-04-16T03:24:32.132Z,9.00
2019-04-16T03:27:00.170Z,9.43
2019-04-16T03:29:30.415Z,9.40
2019-04-16T03:31:58.312Z,8.03
2019-04-16T03:34:25.784Z,8.37
2019-04-16T03:36:52.951Z,9.50
2019-04-16T03:39:20.147Z,9.10
2019-04-16T03:41:47.768Z,9.17
2019-04-16T03:44:14.945Z,8.90
2019-04-16T03:46:46.107Z,9.70
2019-04-16T03:49:11.183Z,9.40
2019-04-16T03:51:38.378Z,9.03
2019-04-16T03:54:06.050Z,9.70
2019-04-16T03:56:33.305Z,9.33
2019-04-16T03:59:00.759Z,9.20
2019-04-16T04:01:28.179Z,9.50
2019-04-16T04:03:57.550Z,10.60
2019-04-16T04:06:24.701Z,8.83
2019-04-16T04:08:53.307Z,9.07
2019-04-16T04:11:20.816Z,9.53
2019-04-16T04:13:50.055Z,8.57
2019-04-16T04:16:17.563Z,9.03
2019-04-16T04:18:44.728Z,8.40
2019-04-16T04:21:11.912Z,9.37
2019-04-16T04:23:39.348Z,8.97
2019-04-16T04:26:08.858Z,7.80
2019-04-16T04:28:35.477Z,8.63
2019-04-16T04:31:02.631Z,9.30
2019-04-16T04:33:41.686Z,9.23
2019-04-16T04:36:08.933Z,8.17
2019-04-16T04:38:37.408Z,7.80
2019-04-16T04:41:05.743Z,9.17
2019-04-16T04:43:33.162Z,9.27
2019-04-16T04:46:00.363Z,8.93
2019-04-16T04:48:27.563Z,8.50
2019-04-16T04:50:54.649Z,8.50
2019-04-16T04:53:21.796Z,8.80
2019-04-16T04:55:49.012Z,9.47
2019-04-16T04:58:16.199Z,9.10
2019-04-16T05:00:43.463Z,7.90
2019-04-16T05:03:15.527Z,9.33
2019-04-16T05:05:46.471Z,9.47
2019-04-16T05:08:13.761Z,8.97
2019-04-16T05:10:43.229Z,9.33
2019-04-16T05:13:10.185Z,8.57
2019-04-16T05:15:37.393Z,9.00
2019-04-16T05:18:05.914Z,8.73
2019-04-16T05:20:33.152Z,8.83
2019-04-16T05:23:00.330Z,9.73
2019-04-16T05:25:27.515Z,9.40
2019-04-16T05:27:54.722Z,8.80
2019-04-16T05:30:22.226Z,8.97
2019-04-16T05:32:49.323Z,9.30
2019-04-16T05:35:16.683Z,8.90
2019-04-16T05:37:43.893Z,8.47
2019-04-16T05:40:11.303Z,9.53
2019-04-16T05:42:38.486Z,8.80
2019-04-16T05:45:06.417Z,9.83
2019-04-16T05:47:33.694Z,9.00
2019-04-16T05:50:00.930Z,10.07
2019-04-16T05:52:28.111Z,9.17
2019-04-16T05:55:03.912Z,9.60
2019-04-16T05:57:33.336Z,9.43
2019-04-16T06:00:03.273Z,9.37
2019-04-16T06:02:38.652Z,9.40
2019-04-16T06:05:06.712Z,8.80
2019-04-16T06:07:37.734Z,9.20
2019-04-16T06:10:06.804Z,9.10
2019-04-16T06:12:52.780Z,8.77
2019-04-16T06:15:36.243Z,8.70
2019-04-16T06:18:17.466Z,9.10
2019-04-16T06:21:05.658Z,8.20
2019-04-16T06:24:03.559Z,8.70
2019-04-16T06:26:53.465Z,9.23
2019-04-16T06:29:37.799Z,8.90
2019-04-16T06:32:27.740Z,8.87
2019-04-16T06:35:11.673Z,7.70
2019-04-16T06:37:45.854Z,8.03
2019-04-16T06:40:35.477Z,7.87
2019-04-16T06:43:08.227Z,8.67
2019-04-16T06:45:40.249Z,8.47
2019-04-16T06:48:12.821Z,7.80
2019-04-16T06:50:56.956Z,7.93
2019-04-16T06:53:30.849Z,7.90
2019-04-16T06:56:29.810Z,7.80
2019-04-16T06:59:17.547Z,6.80
2019-04-16T07:02:11.791Z,7.57
2019-04-16T07:04:44.366Z,7.13
2019-04-16T07:07:15.612Z,6.67
2019-04-16T07:09:47.966Z,6.90
2019-04-16T07:12:20.361Z,6.83
2019-04-16T07:14:48.327Z,7.33
2019-04-16T07:17:18.314Z,7.07
2019-04-16T07:19:45.392Z,7.03
2019-04-16T07:22:12.576Z,6.53
2019-04-16T07:24:40.063Z,6.90
2019-04-16T07:27:07.701Z,7.40
2019-04-16T07:29:54.642Z,6.10
2019-04-16T07:32:56.089Z,6.83
2019-04-16T07:35:40.538Z,7.30
2019-04-16T07:38:14.313Z,6.40
2019-04-16T07:40:59.553Z,6.83
2019-04-16T07:43:49.428Z,6.53
2019-04-16T07:46:34.503Z,6.40
2019-04-16T07:49:23.454Z,6.60
2019-04-16T07:52:11.751Z,6.60
2019-04-16T07:54:59.818Z,6.58
2019-04-16T07:57:27.029Z,5.85
2019-04-16T07:59:54.114Z,6.58
2019-04-16T08:02:22.387Z,6.25
2019-04-16T08:04:49.919Z,6.72
2019-04-16T08:07:20.158Z,6.67
2019-04-16T08:09:46.304Z,6.47
2019-04-16T08:12:29.467Z,7.33
2019-04-16T08:14:42.617Z,6.47
2019-04-16T08:17:09.813Z,7.10
2019-04-16T08:19:37.668Z,7.50
2019-04-16T08:22:05.036Z,7.33
2019-04-16T08:24:35.762Z,7.80
2019-04-16T08:27:03.073Z,7.07
2019-04-16T08:29:30.351Z,6.77
2019-04-16T08:31:57.533Z,6.87
2019-04-16T08:34:24.721Z,6.97
2019-04-16T08:36:52.488Z,7.03
2019-04-16T08:39:19.665Z,7.53
2019-04-16T08:41:46.739Z,6.80
2019-04-16T08:44:13.937Z,6.80
2019-04-16T08:46:41.248Z,7.20
2019-04-16T08:49:08.608Z,6.58
2019-04-16T08:51:37.824Z,6.92
2019-04-16T08:54:04.881Z,6.85
2019-04-16T08:56:32.054Z,6.65
2019-04-16T08:59:01.246Z,6.28
2019-04-16T09:01:29.806Z,6.33
2019-04-16T09:04:01.549Z,7.25
2019-04-16T09:06:26.180Z,5.92
2019-04-16T09:09:16.762Z,5.97
2019-04-16T09:11:44.567Z,6.28
2019-04-16T09:14:12.054Z,6.65
2019-04-16T09:17:01.973Z,6.45
2019-04-16T09:19:29.118Z,6.60
2019-04-16T09:21:56.622Z,7.08
2019-04-16T09:24:40.532Z,7.47
2019-04-16T09:27:28.689Z,7.30
2019-04-16T09:30:20.174Z,7.40
2019-04-16T09:32:54.717Z,6.67
2019-04-16T09:35:34.883Z,7.83
2019-04-16T09:38:18.951Z,7.53
2019-04-16T09:40:56.001Z,7.63
2019-04-16T09:43:23.822Z,8.90
2019-04-16T09:45:50.993Z,8.77
2019-04-16T09:48:18.101Z,9.47
2019-04-16T09:50:47.966Z,10.23
2019-04-16T09:53:15.299Z,10.43
2019-04-16T09:55:42.565Z,10.33
2019-04-16T09:58:17.211Z,11.17
2019-04-16T10:00:47.339Z,11.00
2019-04-16T10:03:28.289Z,11.27
2019-04-16T10:05:55.768Z,10.10
2019-04-16T10:08:23.561Z,10.97
2019-04-16T10:10:50.839Z,11.93
2019-04-16T10:13:30.106Z,11.10
2019-04-16T10:15:47.750Z,11.50
2019-04-16T10:18:14.945Z,12.17
2019-04-16T10:20:42.078Z,11.33
2019-04-16T10:23:15.056Z,10.50
2019-04-16T10:25:42.267Z,10.67
2019-04-16T10:28:16.734Z,11.13
2019-04-16T10:30:46.946Z,10.10
2019-04-16T10:33:14.500Z,9.87
2019-04-16T10:35:42.601Z,9.43
2019-04-16T10:38:25.677Z,9.00
2019-04-16T10:40:59.539Z,10.17
2019-04-16T10:43:45.254Z,10.13
2019-04-16T10:46:22.041Z,9.90
2019-04-16T10:49:06.548Z,9.33
2019-04-16T10:51:46.538Z,10.33
2019-04-16T10:54:22.635Z,9.60
2019-04-16T10:57:10.339Z,9.67
2019-04-16T10:59:49.410Z,7.90
2019-04-16T11:02:38.941Z,8.73
2019-04-16T11:05:24.639Z,9.83
2019-04-16T11:07:51.710Z,8.07
2019-04-16T11:10:19.085Z,8.60
2019-04-16T11:12:46.139Z,8.40
2019-04-16T11:15:18.155Z,8.00
2019-04-16T11:17:45.232Z,9.80
2019-04-16T11:20:12.860Z,9.40
2019-04-16T11:22:40.021Z,8.93
2019-04-16T11:25:07.530Z,8.03
2019-04-16T11:27:34.790Z,8.47
2019-04-16T11:30:02.118Z,9.20
2019-04-16T11:32:30.226Z,8.77
2019-04-16T11:34:57.436Z,8.50
2019-04-16T11:37:24.634Z,9.30
2019-04-16T11:39:52.609Z,8.47
2019-04-16T11:42:20.121Z,8.30
2019-04-16T11:44:50.146Z,7.70
2019-04-16T11:47:16.677Z,7.70
2019-04-16T11:49:43.802Z,8.43
2019-04-16T11:52:11.121Z,8.93
2019-04-16T11:54:38.279Z,7.93
2019-04-16T11:57:05.642Z,9.23
2019-04-16T11:59:32.834Z,8.17
2019-04-16T12:02:09.900Z,8.73
2019-04-16T12:04:43.796Z,8.80
2019-04-16T12:07:39.536Z,8.70
2019-04-16T12:10:21.007Z,8.80
2019-04-16T12:13:07.896Z,8.93
2019-04-16T12:15:44.374Z,9.17
2019-04-16T12:18:43.268Z,9.87
2019-04-16T12:21:15.223Z,8.80
2019-04-16T12:24:02.074Z,9.63
2019-04-16T12:26:48.851Z,9.70
2019-04-16T12:29:34.119Z,8.90
2019-04-16T12:32:36.149Z,9.30
2019-04-16T12:35:21.529Z,8.90
2019-04-16T12:38:17.965Z,8.90
2019-04-16T12:41:20.075Z,8.50
2019-04-16T12:43:53.057Z,7.70
2019-04-16T12:46:35.162Z,8.90
2019-04-16T12:49:20.591Z,8.10
2019-04-16T12:52:17.528Z,8.60
2019-04-16T12:55:04.168Z,7.67
2019-04-16T12:57:40.595Z,8.97
2019-04-16T13:00:26.082Z,8.00
2019-04-16T13:03:16.349Z,10.37
2019-04-16T13:05:50.944Z,9.70
2019-04-16T13:08:33.089Z,9.60
2019-04-16T13:11:36.245Z,9.10
2019-04-16T13:14:19.258Z,9.87
2019-04-16T13:17:02.190Z,9.80
2019-04-16T13:19:38.387Z,8.70
2019-04-16T13:22:05.840Z,11.10
2019-04-16T13:24:46.024Z,11.10
2019-04-16T13:27:18.341Z,10.70
2019-04-16T13:29:45.706Z,11.87
2019-04-16T13:32:12.920Z,10.00
2019-04-16T13:34:40.099Z,11.07
2019-04-16T13:37:07.360Z,11.33
2019-04-16T13:39:41.100Z,11.27
2019-04-16T13:42:08.295Z,10.33
2019-04-16T13:44:40.669Z,12.83
2019-04-16T13:47:08.085Z,11.00
2019-04-16T13:49:53.483Z,11.60
2019-04-16T13:52:25.171Z,12.07
2019-04-16T13:55:24.555Z,14.80
2019-04-16T13:58:05.040Z,11.23
2019-04-16T14:00:42.332Z,11.07
2019-04-16T14:03:12.237Z,10.80
2019-04-16T14:05:42.606Z,11.53
2019-04-16T14:08:08.692Z,10.87
2019-04-16T14:10:35.861Z,11.60
2019-04-16T14:13:03.082Z,10.33
2019-04-16T14:15:38.936Z,11.17
2019-04-16T14:18:02.068Z,9.40
2019-04-16T14:20:29.198Z,8.87
2019-04-16T14:22:56.392Z,8.50
2019-04-16T14:25:23.607Z,47.97
2019-04-16T14:27:50.803Z,13.33
2019-04-16T14:30:21.323Z,9.70
2019-04-16T14:32:48.868Z,7.80
2019-04-16T14:35:32.405Z,8.63
2019-04-16T14:37:48.626Z,9.20
2019-04-16T14:40:20.854Z,7.83
2019-04-16T14:42:48.271Z,9.47
2019-04-16T14:45:21.883Z,9.20
2019-04-16T14:47:48.991Z,8.10
2019-04-16T14:50:16.169Z,8.63
2019-04-16T14:52:43.345Z,9.30
2019-04-16T14:55:29.578Z,8.80
2019-04-16T14:58:25.775Z,9.60
2019-04-16T15:01:04.441Z,8.10
2019-04-16T15:03:54.025Z,9.80
2019-04-16T15:06:43.843Z,8.50
2019-04-16T15:09:28.325Z,8.30
2019-04-16T15:12:13.586Z,8.13
2019-04-16T15:14:45.961Z,8.67
2019-04-16T15:17:44.915Z,9.40
2019-04-16T15:20:32.786Z,10.10
2019-04-16T15:23:18.393Z,8.87
2019-04-16T15:26:02.870Z,8.50
2019-04-16T15:28:45.485Z,8.00
2019-04-16T15:31:24.714Z,7.93
2019-04-16T15:34:09.829Z,9.17
2019-04-16T15:36:47.235Z,8.23
2019-04-16T15:39:23.421Z,10.30
2019-04-16T15:42:16.304Z,8.20
2019-04-16T15:45:00.468Z,9.20
2019-04-16T15:47:46.938Z,8.60
2019-04-16T15:50:18.924Z,9.50
2019-04-16T15:52:54.148Z,10.47
2019-04-16T15:55:39.559Z,8.93
2019-04-16T15:58:24.458Z,11.10
2019-04-16T16:01:14.502Z,10.30
2019-04-16T16:04:10.252Z,9.33
2019-04-16T16:06:44.088Z,8.80
2019-04-16T16:09:26.603Z,9.97
2019-04-16T16:12:22.066Z,11.07
2019-04-16T16:14:48.644Z,11.20
2019-04-16T16:17:15.952Z,10.43
2019-04-16T16:19:43.504Z,10.17
2019-04-16T16:22:12.139Z,11.47
2019-04-16T16:24:42.287Z,10.00
2019-04-16T16:27:08.930Z,11.77
2019-04-16T16:29:36.438Z,9.90
2019-04-16T16:32:04.158Z,9.97
2019-04-16T16:34:31.507Z,9.43
2019-04-16T16:36:58.774Z,8.60
2019-04-16T16:39:26.438Z,9.40
2019-04-16T16:41:53.990Z,9.13
2019-04-16T16:44:21.584Z,9.87
2019-04-16T16:47:02.574Z,9.53
2019-04-16T16:49:30.158Z,11.77
2019-04-16T16:52:15.258Z,10.83
2019-04-16T16:54:42.717Z,11.50
2019-04-16T16:57:12.558Z,12.10
2019-04-16T16:59:57.923Z,11.13
2019-04-16T17:02:33.037Z,12.30
2019-04-16T17:05:00.495Z,12.23
2019-04-16T17:07:27.535Z,11.13
2019-04-16T17:09:55.398Z,11.20
2019-04-16T17:12:22.705Z,11.07
2019-04-16T17:14:50.373Z,11.13
2019-04-16T17:17:17.567Z,10.33
2019-04-16T17:19:44.872Z,11.07
2019-04-16T17:22:14.722Z,11.07
2019-04-16T17:24:41.619Z,12.33
2019-04-16T17:27:09.057Z,11.87
2019-04-16T17:29:36.328Z,11.60
2019-04-16T17:32:06.233Z,13.13
2019-04-16T17:34:38.814Z,12.37
2019-04-16T17:37:03.233Z,11.80
2019-04-16T17:39:56.378Z,11.10
2019-04-16T17:42:36.969Z,12.00
2019-04-16T17:45:36.735Z,11.90
2019-04-16T17:48:12.426Z,10.47
2019-04-16T17:51:02.058Z,11.30
2019-04-16T17:53:50.077Z,11.27
2019-04-16T17:56:35.533Z,12.20
2019-04-16T17:59:08.682Z,10.70
2019-04-16T18:01:53.702Z,10.10
2019-04-16T18:04:46.242Z,10.70
2019-04-16T18:07:24.448Z,10.27
2019-04-16T18:10:11.320Z,10.47
2019-04-16T18:12:57.167Z,9.90
2019-04-16T18:15:49.828Z,10.70
2019-04-16T18:18:36.944Z,10.80
2019-04-16T18:21:35.783Z,9.93
2019-04-16T18:24:22.537Z,13.57
2019-04-16T18:27:29.165Z,11.30
2019-04-16T18:30:16.326Z,10.60
2019-04-16T18:33:06.954Z,9.80
2019-04-16T18:35:37.072Z,10.10
2019-04-16T18:38:23.901Z,8.57
2019-04-16T18:41:08.923Z,8.23
2019-04-16T18:43:54.292Z,5.20
2019-04-16T18:46:37.284Z,5.00
2019-04-16T18:49:17.444Z,4.73
2019-04-16T18:51:45.412Z,3.90
2019-04-16T18:54:15.130Z,4.47
2019-04-16T18:56:42.133Z,3.93
2019-04-16T18:59:09.349Z,4.43
2019-04-16T19:01:38.027Z,4.20
2019-04-16T19:04:05.722Z,4.67
2019-04-16T19:06:33.099Z,4.30
2019-04-16T19:09:00.914Z,4.20
2019-04-16T19:11:28.123Z,3.83
2019-04-16T19:13:55.479Z,3.67
2019-04-16T19:16:23.039Z,3.60
2019-04-16T19:18:50.606Z,3.47
2019-04-16T19:21:18.329Z,3.27
2019-04-16T19:23:45.801Z,2.90
2019-04-16T19:26:13.323Z,3.30
2019-04-16T19:28:40.972Z,3.13
2019-04-16T19:31:08.198Z,3.33
2019-04-16T19:33:38.285Z,2.53
2019-04-16T19:36:05.161Z,3.07
2019-04-16T19:38:32.745Z,2.87
2019-04-16T19:41:01.755Z,3.57
2019-04-16T19:43:34.347Z,3.10
2019-04-16T19:45:58.083Z,3.30
2019-04-16T19:48:35.207Z,3.27
2019-04-16T19:50:54.368Z,3.23
2019-04-16T19:53:21.859Z,3.53
2019-04-16T19:55:49.093Z,3.20
2019-04-16T19:58:16.642Z,3.07
2019-04-16T20:00:43.852Z,3.73
2019-04-16T20:03:11.098Z,3.50
2019-04-16T20:05:38.681Z,2.93
2019-04-16T20:08:06.033Z,2.87
2019-04-16T20:10:33.126Z,3.30
2019-04-16T20:13:00.425Z,2.67
2019-04-16T20:15:27.545Z,3.23
2019-04-16T20:17:55.111Z,2.87
2019-04-16T20:20:22.535Z,3.17
2019-04-16T20:22:49.721Z,3.20
2019-04-16T20:25:16.937Z,2.77
2019-04-16T20:27:44.183Z,2.73
2019-04-16T20:30:13.039Z,2.47
2019-04-16T20:32:42.261Z,3.17
2019-04-16T20:35:09.790Z,2.80
2019-04-16T20:37:37.059Z,2.63
2019-04-16T20:40:04.697Z,2.60
2019-04-16T20:42:32.237Z,2.57
2019-04-16T20:44:59.649Z,2.77
2019-04-16T20:47:26.924Z,2.43
2019-04-16T20:49:54.157Z,2.67
2019-04-16T20:52:21.643Z,2.90
2019-04-16T20:54:51.714Z,2.47
2019-04-16T20:57:18.965Z,3.10
2019-04-16T20:59:46.279Z,2.77
2019-04-16T21:02:14.577Z,2.40
2019-04-16T21:04:41.837Z,2.73
2019-04-16T21:07:14.158Z,2.70
2019-04-16T21:09:38.209Z,2.70
2019-04-16T21:12:05.745Z,2.40
2019-04-16T21:14:33.218Z,3.10
2019-04-16T21:17:05.724Z,2.30
2019-04-16T21:19:46.617Z,2.47
2019-04-16T21:22:15.935Z,2.80
2019-04-16T21:24:43.445Z,2.33
2019-04-16T21:27:10.855Z,2.30
2019-04-16T21:29:38.078Z,2.50
2019-04-16T21:32:10.272Z,2.50
2019-04-16T21:34:42.118Z,3.00
2019-04-16T21:37:27.316Z,2.97
2019-04-16T21:39:57.150Z,2.67
2019-04-16T21:42:24.735Z,3.00
2019-04-16T21:44:52.239Z,3.00
2019-04-16T21:47:23.120Z,2.90
2019-04-16T21:49:48.912Z,3.13
2019-04-16T21:52:16.788Z,3.27
2019-04-16T21:54:44.287Z,3.00
2019-04-16T21:57:13.468Z,3.03
2019-04-16T21:59:40.741Z,2.70
2019-04-16T22:02:14.953Z,3.47
2019-04-16T22:04:42.741Z,3.97
2019-04-16T22:07:11.550Z,3.53
2019-04-16T22:09:38.768Z,2.97
2019-04-16T22:12:05.991Z,3.10
2019-04-16T22:14:33.535Z,3.43
2019-04-16T22:17:04.177Z,2.97
2019-04-16T22:19:30.129Z,2.83
2019-04-16T22:21:57.305Z,3.33
2019-04-16T22:24:24.845Z,3.00
2019-04-16T22:26:52.371Z,2.77
2019-04-16T22:29:19.543Z,2.70
2019-04-16T22:31:46.778Z,3.50
2019-04-16T22:34:14.189Z,3.33
2019-04-16T22:36:41.289Z,2.90
2019-04-16T22:39:20.819Z,3.13
2019-04-16T22:41:57.425Z,2.90
2019-04-16T22:44:47.802Z,2.70
2019-04-16T22:47:18.094Z,3.30
2019-04-16T22:49:45.311Z,3.20
2019-04-16T22:52:13.311Z,2.70
2019-04-16T22:54:40.463Z,3.57
2019-04-16T22:57:09.591Z,2.93
2019-04-16T22:59:39.350Z,3.40
2019-04-16T23:02:31.573Z,3.23
2019-04-16T23:04:59.998Z,2.40
2019-04-16T23:07:27.187Z,2.70
2019-04-16T23:09:54.392Z,2.70
2019-04-16T23:12:24.493Z,2.80
2019-04-16T23:14:50.719Z,2.70
2019-04-16T23:17:19.814Z,3.17
2019-04-16T23:19:47.198Z,2.80
2019-04-16T23:22:15.383Z,3.20
2019-04-16T23:24:42.650Z,2.70
2019-04-16T23:27:09.850Z,2.90
2019-04-16T23:29:37.072Z,2.70
2019-04-16T23:32:04.308Z,2.63
2019-04-16T23:34:31.512Z,2.50
2019-04-16T23:36:58.741Z,2.70
2019-04-16T23:39:25.893Z,2.73
2019-04-16T23:41:53.170Z,2.93
2019-04-16T23:44:49.080Z,3.00
2019-04-16T23:47:33.999Z,2.37
2019-04-16T23:50:10.684Z,2.60
2019-04-16T23:52:43.096Z,2.47
2019-04-16T23:55:26.275Z,3.00
2019-04-16T23:58:02.609Z,3.30
